Time;durP1;ratioP1;P1;durP2;ratioP2;P2;SDS_P1;SDS_P2;PMS_P1;PMS_P2;Temp;Humidity;BMP_temperature;BMP_pressure;BME280_temperature;BME280_humidity;BME280_pressure;Samples;Min_cycle;Max_cycle;Signal;HPM_P1;HPM_P2
2021/05/10 00:01:27;;;;;;;1.60;1.50;;;23.40;32.10;;;;;;5034014;28;20209;-44
2021/05/10 00:03:53;;;;;;;1.30;1.20;;;23.40;32.10;;;;;;5014072;28;20231;-50
2021/05/10 00:06:19;;;;;;;2.03;1.40;;;23.40;32.10;;;;;;5013872;28;20207;-43
2021/05/10 00:08:47;;;;;;;1.63;1.30;;;23.40;32.10;;;;;;5026410;28;20222;-44
2021/05/10 00:11:13;;;;;;;1.60;1.50;;;23.40;32.10;;;;;;5028873;28;20694;-50
2021/05/10 00:13:43;;;;;;;1.25;1.15;;;23.40;32.10;;;;;;5022895;28;20273;-46
2021/05/10 00:16:09;;;;;;;1.45;1.35;;;23.40;32.10;;;;;;5025400;28;20203;-46
2021/05/10 00:18:35;;;;;;;1.20;1.10;;;23.40;32.10;;;;;;5019101;28;20622;-46
2021/05/10 00:21:01;;;;;;;2.35;1.20;;;23.40;32.10;;;;;;5024489;28;20202;-47
2021/05/10 00:23:27;;;;;;;1.83;1.10;;;23.40;32.00;;;;;;5026066;28;20332;-49
2021/05/10 00:25:53;;;;;;;1.30;1.20;;;23.40;32.10;;;;;;5033690;28;20554;-49
2021/05/10 00:28:19;;;;;;;1.50;1.40;;;23.40;32.00;;;;;;5021468;28;20219;-47
2021/05/10 00:30:45;;;;;;;1.23;1.15;;;23.40;32.10;;;;;;5017876;28;20464;-50
2021/05/10 00:33:11;;;;;;;1.80;1.20;;;23.40;32.00;;;;;;5032141;28;20256;-52
2021/05/10 00:35:37;;;;;;;1.20;1.10;;;23.40;31.90;;;;;;5015826;28;20195;-52
2021/05/10 00:38:03;;;;;;;1.45;1.30;;;23.40;31.90;;;;;;5026367;28;20215;-44
2021/05/10 00:40:29;;;;;;;1.67;1.30;;;23.40;32.00;;;;;;5033226;28;20207;-48
2021/05/10 00:42:55;;;;;;;1.38;1.10;;;23.40;32.10;;;;;;5023457;28;20233;-43
2021/05/10 00:45:21;;;;;;;1.60;1.23;;;23.40;32.10;;;;;;5016454;28;20207;-46
2021/05/10 00:47:47;;;;;;;1.48;1.38;;;23.40;32.10;;;;;;5030295;28;20222;-48
2021/05/10 00:50:13;;;;;;;1.33;1.20;;;23.40;32.10;;;;;;5023861;28;20206;-46
2021/05/10 00:52:39;;;;;;;3.28;1.30;;;23.40;32.10;;;;;;5029050;28;20206;-44
2021/05/10 00:55:05;;;;;;;1.27;1.17;;;23.40;32.10;;;;;;5018331;28;20198;-49
2021/05/10 00:57:31;;;;;;;1.27;1.17;;;23.40;32.10;;;;;;5030109;28;20226;-47
2021/05/10 00:59:57;;;;;;;1.30;1.20;;;23.40;32.10;;;;;;5027645;28;20198;-54
2021/05/10 01:02:23;;;;;;;1.27;1.20;;;23.40;32.10;;;;;;5028704;28;20206;-47
2021/05/10 01:04:49;;;;;;;1.80;1.23;;;23.40;32.10;;;;;;5030969;28;20601;-44
2021/05/10 01:07:15;;;;;;;1.17;1.05;;;23.40;32.00;;;;;;5030641;28;20276;-52
2021/05/10 01:09:41;;;;;;;1.30;1.20;;;23.40;32.10;;;;;;5026670;28;20244;-52
2021/05/10 01:12:07;;;;;;;1.23;1.13;;;23.30;32.10;;;;;;5030382;28;20635;-45
2021/05/10 01:14:33;;;;;;;1.52;1.13;;;23.40;32.20;;;;;;5011599;28;20195;-44
2021/05/10 01:16:59;;;;;;;1.17;0.98;;;23.40;32.00;;;;;;5015211;28;20230;-48
2021/05/10 01:19:26;;;;;;;1.17;1.08;;;23.40;31.80;;;;;;5020466;28;20606;-49
2021/05/10 01:21:52;;;;;;;1.17;1.10;;;23.40;31.80;;;;;;5012880;28;20310;-44
2021/05/10 01:24:18;;;;;;;1.40;1.30;;;23.50;31.80;;;;;;5027424;28;20831;-47
2021/05/10 01:26:43;;;;;;;1.48;1.20;;;23.50;31.60;;;;;;5031753;28;20221;-49
2021/05/10 01:29:09;;;;;;;1.55;1.10;;;23.50;31.50;;;;;;5032015;28;20741;-51
2021/05/10 01:31:35;;;;;;;1.23;1.20;;;23.50;31.30;;;;;;5027443;28;20203;-46
2021/05/10 01:34:01;;;;;;;1.23;1.20;;;23.50;31.20;;;;;;5016769;28;20564;-45
2021/05/10 01:36:27;;;;;;;2.22;1.40;;;23.50;31.20;;;;;;5014978;28;20199;-46
2021/05/10 01:38:53;;;;;;;1.88;1.20;;;23.50;31.20;;;;;;5029675;28;20627;-47
2021/05/10 01:41:19;;;;;;;1.88;1.10;;;23.50;31.20;;;;;;5026611;28;20203;-46
2021/05/10 01:43:45;;;;;;;1.10;1.02;;;23.60;31.30;;;;;;5013068;28;20231;-44
2021/05/10 01:46:11;;;;;;;1.45;1.20;;;23.60;31.40;;;;;;5026826;28;20214;-45
2021/05/10 01:48:37;;;;;;;1.13;1.05;;;23.50;31.30;;;;;;5028812;28;20195;-51
2021/05/10 01:51:04;;;;;;;1.33;1.23;;;23.60;31.50;;;;;;5020711;28;20252;-48
2021/05/10 01:53:32;;;;;;;1.23;1.13;;;23.60;31.40;;;;;;5030571;28;20248;-47
2021/05/10 01:55:58;;;;;;;1.77;1.20;;;23.60;31.50;;;;;;5011879;28;20195;-45
2021/05/10 01:58:24;;;;;;;1.52;1.20;;;23.60;31.50;;;;;;5025126;28;20237;-44
2021/05/10 02:00:50;;;;;;;2.47;1.73;;;23.60;31.50;;;;;;5045412;22;20226;-39
2021/05/10 02:03:16;;;;;;;1.30;1.20;;;23.60;31.90;;;;;;5032691;28;20544;-40
2021/05/10 02:05:42;;;;;;;2.08;1.20;;;23.60;31.80;;;;;;5031306;28;20206;-40
2021/05/10 02:08:08;;;;;;;2.13;1.30;;;23.60;32.00;;;;;;5031011;28;20531;-41
2021/05/10 02:10:34;;;;;;;1.30;1.20;;;23.60;31.90;;;;;;5029186;28;20218;-40
2021/05/10 02:13:00;;;;;;;1.00;1.00;;;23.60;31.90;;;;;;5027513;28;20298;-40
2021/05/10 02:15:26;;;;;;;1.35;1.00;;;23.60;31.80;;;;;;5030597;28;20252;-41
2021/05/10 02:17:52;;;;;;;1.70;1.33;;;23.60;31.80;;;;;;5031981;28;20280;-40
2021/05/10 02:20:18;;;;;;;1.05;1.05;;;23.60;32.00;;;;;;5031143;28;20199;-43
2021/05/10 02:22:44;;;;;;;1.10;1.00;;;23.60;31.90;;;;;;5030305;28;20202;-43
2021/05/10 02:25:10;;;;;;;1.15;1.05;;;23.60;31.90;;;;;;5030068;28;20662;-47
2021/05/10 02:27:36;;;;;;;1.52;1.33;;;23.60;31.90;;;;;;5031004;28;20218;-41
2021/05/10 02:30:02;;;;;;;1.30;1.20;;;23.60;31.90;;;;;;5031147;28;20579;-43
2021/05/10 02:32:28;;;;;;;2.25;1.42;;;23.60;31.80;;;;;;5031255;28;20206;-41
2021/05/10 02:34:54;;;;;;;1.15;1.00;;;23.60;31.80;;;;;;5030203;28;20583;-41
2021/05/10 02:37:20;;;;;;;1.23;1.13;;;23.60;31.70;;;;;;5031305;28;20223;-41
2021/05/10 02:39:46;;;;;;;1.83;1.20;;;23.60;31.70;;;;;;5031258;28;20199;-40
2021/05/10 02:42:12;;;;;;;1.60;1.20;;;23.60;31.80;;;;;;5031482;28;20243;-43
2021/05/10 02:44:40;;;;;;;1.15;1.05;;;23.60;31.60;;;;;;5025246;28;20233;-40
2021/05/10 02:47:06;;;;;;;2.15;1.30;;;23.60;31.60;;;;;;5030093;28;20217;-40
2021/05/10 02:49:32;;;;;;;1.30;1.20;;;23.60;31.70;;;;;;5030622;28;20583;-48
2021/05/10 02:51:58;;;;;;;3.15;1.27;;;23.60;31.60;;;;;;5030599;28;20203;-41
2021/05/10 02:54:24;;;;;;;1.42;1.10;;;23.60;31.50;;;;;;5026584;28;20264;-42
2021/05/10 02:56:50;;;;;;;1.73;1.40;;;23.60;31.50;;;;;;5027943;28;20229;-41
2021/05/10 02:59:16;;;;;;;1.67;1.50;;;23.60;31.60;;;;;;5030854;28;20227;-42
2021/05/10 03:01:42;;;;;;;1.38;1.23;;;23.60;31.50;;;;;;5030622;28;20202;-46
2021/05/10 03:04:08;;;;;;;1.38;1.23;;;23.60;31.30;;;;;;5030184;28;20226;-40
2021/05/10 03:06:34;;;;;;;1.48;1.13;;;23.60;31.30;;;;;;5030794;28;20280;-41
2021/05/10 03:09:00;;;;;;;1.58;1.10;;;23.60;31.40;;;;;;5028944;28;20260;-41
2021/05/10 03:11:26;;;;;;;1.30;1.20;;;23.60;31.50;;;;;;5030509;28;20213;-41
2021/05/10 03:13:52;;;;;;;1.00;1.00;;;23.60;31.40;;;;;;5029881;28;20543;-40
2021/05/10 03:16:18;;;;;;;1.95;1.33;;;23.60;31.40;;;;;;5030212;28;20221;-40
2021/05/10 03:18:44;;;;;;;1.45;1.20;;;23.60;31.30;;;;;;5030508;28;20206;-43
2021/05/10 03:21:10;;;;;;;1.35;1.25;;;23.60;31.30;;;;;;5030656;28;20671;-40
2021/05/10 03:23:36;;;;;;;1.08;1.08;;;23.60;31.40;;;;;;5029268;28;20226;-41
2021/05/10 03:26:02;;;;;;;1.20;0.93;;;23.60;31.30;;;;;;5029532;28;20222;-40
2021/05/10 03:28:27;;;;;;;1.20;1.00;;;23.60;31.30;;;;;;5029902;28;20629;-41
2021/05/10 03:30:53;;;;;;;1.20;1.10;;;23.60;31.30;;;;;;5030139;28;20198;-44
2021/05/10 03:33:19;;;;;;;1.10;1.00;;;23.60;31.20;;;;;;5030609;28;20233;-40
2021/05/10 03:35:45;;;;;;;1.52;1.13;;;23.60;31.30;;;;;;5023034;28;20198;-40
2021/05/10 03:38:11;;;;;;;1.17;1.17;;;23.60;31.20;;;;;;5030807;28;20198;-47
2021/05/10 03:40:37;;;;;;;1.08;1.08;;;23.60;31.30;;;;;;5030048;28;20678;-41
2021/05/10 03:43:03;;;;;;;1.13;1.02;;;23.60;31.20;;;;;;5030345;28;20226;-42
2021/05/10 03:45:29;;;;;;;1.30;1.15;;;23.60;31.20;;;;;;5029648;28;20543;-44
2021/05/10 03:47:55;;;;;;;1.38;1.10;;;23.60;31.30;;;;;;5030116;28;20248;-41
2021/05/10 03:50:21;;;;;;;1.35;0.90;;;23.60;31.40;;;;;;5025334;28;20278;-45
2021/05/10 03:52:47;;;;;;;1.70;1.35;;;23.60;31.40;;;;;;5030335;28;20265;-42
2021/05/10 03:55:14;;;;;;;1.25;1.15;;;23.60;31.40;;;;;;5016180;28;20257;-40
2021/05/10 03:57:40;;;;;;;1.88;1.20;;;23.60;31.20;;;;;;5027342;28;20226;-46
2021/05/10 04:00:06;;;;;;;1.20;1.10;;;23.60;31.30;;;;;;5030016;28;20207;-40
2021/05/10 04:02:32;;;;;;;1.20;1.10;;;23.60;31.20;;;;;;5030441;28;20214;-43
2021/05/10 04:05:06;;;;;;;1.60;1.13;;;23.60;31.20;;;;;;5029348;28;20234;-40
2021/05/10 04:07:44;;;;;;;1.90;1.10;;;23.60;31.20;;;;;;5029092;28;20227;-39
2021/05/10 04:10:35;;;;;;;1.98;1.20;;;23.60;31.20;;;;;;5019435;28;20233;-46
2021/05/10 04:15:46;;;;;;;1.23;1.13;;;23.60;31.20;;;;;;5029868;28;20289;-41
2021/05/10 04:18:12;;;;;;;1.02;1.02;;;23.60;31.20;;;;;;5030070;28;20203;-47
2021/05/10 04:20:38;;;;;;;2.75;1.23;;;23.60;31.20;;;;;;5030436;28;20661;-44
2021/05/10 04:23:04;;;;;;;1.55;1.45;;;23.60;31.30;;;;;;5029633;28;20214;-41
2021/05/10 04:25:30;;;;;;;1.08;0.98;;;23.60;31.30;;;;;;5029443;28;20661;-47
2021/05/10 04:27:56;;;;;;;1.00;1.00;;;23.60;31.10;;;;;;5029995;28;20651;-45
2021/05/10 04:30:22;;;;;;;1.10;1.00;;;23.60;31.30;;;;;;5029341;28;20202;-43
2021/05/10 04:32:48;;;;;;;0.88;0.88;;;23.60;31.20;;;;;;5030110;28;20210;-49
2021/05/10 04:35:13;;;;;;;1.30;1.20;;;23.60;31.10;;;;;;5028742;28;20670;-43
2021/05/10 04:37:40;;;;;;;1.27;1.08;;;23.60;31.10;;;;;;5032527;28;20490;-43
2021/05/10 04:40:06;;;;;;;1.15;1.15;;;23.60;31.10;;;;;;5033369;28;20194;-39
2021/05/10 04:42:32;;;;;;;2.05;1.25;;;23.60;31.10;;;;;;5033021;28;20613;-43
2021/05/10 04:44:58;;;;;;;0.98;0.98;;;23.60;31.10;;;;;;5032539;28;20248;-43
2021/05/10 04:47:24;;;;;;;1.02;1.02;;;23.60;31.20;;;;;;5032465;28;20245;-42
2021/05/10 04:49:50;;;;;;;1.20;1.08;;;23.60;31.00;;;;;;5032516;28;20191;-39
2021/05/10 04:52:16;;;;;;;1.42;1.15;;;23.60;31.10;;;;;;5033361;28;20292;-43
2021/05/10 04:54:42;;;;;;;1.10;1.10;;;23.60;31.10;;;;;;5032683;28;20747;-41
2021/05/10 04:57:08;;;;;;;1.38;1.23;;;23.60;31.10;;;;;;5032832;28;20218;-41
2021/05/10 04:59:34;;;;;;;2.28;1.33;;;23.60;31.30;;;;;;5032762;28;20275;-41
2021/05/10 05:02:00;;;;;;;1.40;1.20;;;23.60;31.50;;;;;;5033246;28;20202;-42
2021/05/10 05:04:26;;;;;;;1.38;1.20;;;23.60;31.60;;;;;;5032281;28;20234;-45
2021/05/10 05:06:52;;;;;;;1.48;1.05;;;23.60;31.50;;;;;;5032748;28;20223;-47
2021/05/10 05:09:18;;;;;;;1.10;1.00;;;23.60;31.40;;;;;;5033048;28;20260;-40
2021/05/10 05:11:44;;;;;;;2.50;1.02;;;23.60;31.40;;;;;;5032443;28;20256;-42
2021/05/10 05:14:10;;;;;;;1.17;1.08;;;23.60;31.30;;;;;;5032779;28;20206;-47
2021/05/10 05:16:36;;;;;;;1.50;1.40;;;23.60;31.20;;;;;;5031407;28;20283;-41
2021/05/10 05:19:02;;;;;;;0.90;0.90;;;23.60;31.20;;;;;;5032005;28;20210;-41
2021/05/10 05:21:27;;;;;;;1.15;1.05;;;23.60;31.20;;;;;;5032420;28;20211;-41
2021/05/10 05:23:53;;;;;;;1.20;1.13;;;23.60;31.10;;;;;;5031980;28;20240;-42
2021/05/10 05:26:19;;;;;;;1.10;1.00;;;23.60;31.10;;;;;;5032578;28;20222;-41
2021/05/10 05:28:45;;;;;;;1.27;1.17;;;23.60;31.00;;;;;;5031539;28;20268;-48
2021/05/10 05:31:11;;;;;;;1.40;1.10;;;23.60;31.10;;;;;;5031911;28;20211;-41
2021/05/10 05:33:37;;;;;;;1.65;1.00;;;23.60;31.20;;;;;;5031880;28;20222;-44
2021/05/10 05:36:05;;;;;;;2.13;1.10;;;23.60;31.20;;;;;;5029716;28;20546;-41
2021/05/10 05:38:34;;;;;;;1.08;1.02;;;23.60;31.20;;;;;;5028573;28;20206;-40
2021/05/10 05:41:00;;;;;;;2.55;1.13;;;23.60;31.20;;;;;;5031539;28;20195;-44
2021/05/10 05:43:26;;;;;;;1.17;1.02;;;23.60;31.10;;;;;;5031860;28;20249;-45
2021/05/10 05:45:52;;;;;;;0.90;0.90;;;23.60;31.10;;;;;;5031648;28;20218;-41
2021/05/10 05:48:18;;;;;;;1.50;1.20;;;23.60;31.10;;;;;;5031568;28;20191;-43
2021/05/10 05:50:44;;;;;;;2.35;1.00;;;23.60;31.20;;;;;;5032040;28;20212;-43
2021/05/10 05:53:10;;;;;;;1.05;1.00;;;23.60;31.20;;;;;;5031913;28;20206;-43
2021/05/10 05:55:36;;;;;;;1.30;1.20;;;23.70;31.20;;;;;;5031376;28;20226;-42
2021/05/10 05:58:02;;;;;;;1.08;1.00;;;23.70;31.30;;;;;;5030842;28;20218;-41
2021/05/10 06:00:28;;;;;;;1.05;1.05;;;23.60;31.00;;;;;;5031959;28;20202;-44
2021/05/10 06:02:54;;;;;;;1.10;1.10;;;23.70;31.20;;;;;;5032009;28;20218;-41
2021/05/10 06:05:20;;;;;;;1.20;1.10;;;23.70;31.20;;;;;;5031008;28;20325;-47
2021/05/10 06:07:46;;;;;;;0.88;0.88;;;23.70;31.00;;;;;;5031435;28;20225;-43
2021/05/10 06:10:13;;;;;;;1.55;1.00;;;23.70;31.20;;;;;;4980739;28;20611;-41
2021/05/10 06:12:39;;;;;;;1.58;1.15;;;23.60;31.10;;;;;;4949508;28;20207;-45
2021/05/10 06:15:05;;;;;;;1.75;1.00;;;23.70;31.10;;;;;;5031321;28;20293;-42
2021/05/10 06:17:31;;;;;;;1.65;1.02;;;23.70;31.20;;;;;;5025267;28;20209;-44
2021/05/10 06:19:57;;;;;;;2.25;1.70;;;23.70;32.90;;;;;;5026819;28;20198;-44
2021/05/10 06:22:23;;;;;;;1.00;1.00;;;23.70;31.80;;;;;;5031036;28;20287;-40
2021/05/10 06:24:49;;;;;;;2.35;1.40;;;23.70;32.10;;;;;;5031235;28;20297;-44
2021/05/10 06:27:15;;;;;;;1.27;1.10;;;23.70;31.70;;;;;;5030610;28;20206;-41
2021/05/10 06:29:41;;;;;;;1.38;1.27;;;23.70;31.50;;;;;;5021545;28;20234;-48
2021/05/10 06:32:07;;;;;;;3.63;1.23;;;23.70;31.40;;;;;;5011818;28;20245;-47
2021/05/10 06:34:33;;;;;;;0.93;0.93;;;23.70;31.40;;;;;;5011026;28;20681;-45
2021/05/10 06:36:59;;;;;;;1.65;1.02;;;23.70;31.50;;;;;;5016285;28;20227;-43
2021/05/10 06:39:24;;;;;;;1.98;1.33;;;23.70;31.50;;;;;;5028550;28;20516;-46
2021/05/10 06:41:50;;;;;;;1.98;1.30;;;23.70;31.40;;;;;;5024526;28;20195;-45
2021/05/10 06:44:16;;;;;;;2.88;1.10;;;23.80;32.50;;;;;;5030428;28;20256;-41
2021/05/10 06:46:42;;;;;;;1.63;1.20;;;23.80;32.60;;;;;;5030818;28;20223;-40
2021/05/10 06:49:08;;;;;;;1.70;1.00;;;23.80;31.80;;;;;;5029995;28;20203;-43
2021/05/10 06:51:34;;;;;;;2.17;1.10;;;23.80;31.70;;;;;;5030548;28;20252;-43
2021/05/10 06:54:00;;;;;;;2.30;1.20;;;23.80;31.80;;;;;;5029468;28;20199;-44
2021/05/10 06:56:26;;;;;;;2.20;1.23;;;23.80;32.50;;;;;;5030598;28;20222;-47
2021/05/10 06:58:52;;;;;;;2.55;1.60;;;23.80;33.00;;;;;;5029679;28;20202;-45
2021/05/10 07:01:18;;;;;;;2.80;1.10;;;23.80;33.10;;;;;;5030783;28;20199;-49
2021/05/10 07:03:44;;;;;;;6.85;1.20;;;23.90;33.10;;;;;;5030704;28;20263;-41
2021/05/10 07:06:10;;;;;;;2.60;1.88;;;23.90;33.10;;;;;;5029501;28;20218;-47
2021/05/10 07:08:36;;;;;;;2.15;1.20;;;23.90;33.10;;;;;;5018264;28;20199;-48
2021/05/10 07:11:02;;;;;;;2.33;1.17;;;23.90;33.10;;;;;;5030099;28;20203;-50
2021/05/10 07:13:28;;;;;;;1.70;1.20;;;23.90;33.10;;;;;;5030549;28;20261;-44
2021/05/10 07:15:54;;;;;;;4.45;1.50;;;23.90;35.10;;;;;;5028755;28;20690;-48
2021/05/10 07:18:20;;;;;;;4.07;1.20;;;23.90;35.40;;;;;;5030403;28;20202;-43
2021/05/10 07:20:46;;;;;;;1.75;1.30;;;23.80;35.00;;;;;;5029940;28;20568;-42
2021/05/10 07:23:12;;;;;;;4.10;1.30;;;23.80;35.50;;;;;;5030464;28;20218;-41
2021/05/10 07:25:38;;;;;;;3.05;1.58;;;23.80;36.00;;;;;;5029650;28;20276;-42
2021/05/10 07:28:04;;;;;;;1.67;1.25;;;23.70;35.70;;;;;;5029420;28;20194;-42
2021/05/10 07:30:30;;;;;;;2.53;1.08;;;23.70;35.60;;;;;;5030205;28;20242;-48
2021/05/10 07:32:56;;;;;;;2.15;1.30;;;23.70;35.50;;;;;;5030353;28;20240;-48
2021/05/10 07:35:22;;;;;;;6.97;2.58;;;23.80;35.10;;;;;;5029456;28;20613;-55
2021/05/10 07:37:48;;;;;;;4.60;2.40;;;23.80;38.30;;;;;;5028938;28;20198;-44
2021/05/10 07:40:14;;;;;;;2.80;1.80;;;23.80;31.90;;;;;;5029974;28;20579;-43
2021/05/10 07:42:40;;;;;;;3.15;1.45;;;23.80;31.30;;;;;;5024294;28;20199;-46
2021/05/10 07:45:06;;;;;;;1.80;1.63;;;23.80;29.60;;;;;;5024702;28;20648;-48
2021/05/10 07:47:32;;;;;;;3.55;1.50;;;23.80;31.00;;;;;;5029411;28;20198;-46
2021/05/10 07:49:58;;;;;;;4.72;2.08;;;23.80;31.70;;;;;;5029743;28;20574;-54
2021/05/10 07:52:24;;;;;;;3.17;1.70;;;23.70;32.50;;;;;;5029585;28;20268;-45
2021/05/10 07:54:50;;;;;;;1.98;1.50;;;23.70;32.40;;;;;;5029753;28;20234;-46
2021/05/10 07:57:16;;;;;;;2.15;1.50;;;23.70;32.90;;;;;;5029870;28;20195;-48
2021/05/10 07:59:43;;;;;;;2.63;1.40;;;23.70;33.30;;;;;;5029283;28;20210;-48
2021/05/10 08:02:09;;;;;;;2.13;1.67;;;23.70;33.60;;;;;;5029816;28;20194;-46
2021/05/10 08:04:35;;;;;;;3.38;1.55;;;23.70;34.00;;;;;;5029291;28;20300;-45
2021/05/10 08:07:01;;;;;;;1.70;1.60;;;23.70;34.00;;;;;;5029815;28;20202;-45
2021/05/10 08:09:27;;;;;;;3.08;1.90;;;23.70;34.10;;;;;;5026116;28;20212;-39
2021/05/10 08:11:53;;;;;;;3.28;1.40;;;23.70;33.60;;;;;;5032385;28;20572;-40
2021/05/10 08:14:19;;;;;;;1.83;1.27;;;23.70;34.50;;;;;;5033417;28;20213;-42
2021/05/10 08:16:46;;;;;;;1.75;1.48;;;23.80;34.80;;;;;;5033245;28;20226;-42
2021/05/10 08:19:12;;;;;;;1.98;1.60;;;23.80;34.60;;;;;;5032336;28;20295;-44
2021/05/10 08:21:38;;;;;;;2.33;1.63;;;23.80;34.50;;;;;;5031752;28;20198;-40
2021/05/10 08:24:04;;;;;;;2.55;1.63;;;23.80;34.10;;;;;;5032726;28;20223;-47
2021/05/10 08:26:30;;;;;;;2.15;1.70;;;23.80;34.30;;;;;;5034165;28;20232;-43
2021/05/10 08:28:56;;;;;;;1.60;1.50;;;23.80;33.40;;;;;;5033253;28;20198;-44
2021/05/10 08:31:22;;;;;;;1.83;1.50;;;23.80;33.90;;;;;;5032915;28;20284;-44
2021/05/10 08:33:50;;;;;;;2.58;1.50;;;23.80;33.80;;;;;;5032838;28;20583;-45
2021/05/10 08:36:17;;;;;;;2.35;1.33;;;23.80;34.10;;;;;;5033255;28;20250;-47
2021/05/10 08:38:43;;;;;;;1.58;1.35;;;23.90;34.10;;;;;;5033139;28;20253;-46
2021/05/10 08:41:09;;;;;;;2.90;1.45;;;23.80;34.10;;;;;;5032901;28;20194;-41
2021/05/10 08:43:36;;;;;;;1.83;1.50;;;23.80;33.70;;;;;;5017043;28;20218;-49
2021/05/10 08:46:04;;;;;;;2.35;1.67;;;23.80;34.20;;;;;;5040681;28;20776;-51
2021/05/10 08:48:30;;;;;;;2.58;1.42;;;23.80;33.70;;;;;;5032598;28;20576;-42
2021/05/10 08:50:56;;;;;;;3.13;1.50;;;23.80;33.70;;;;;;5033589;28;20215;-41
2021/05/10 08:53:22;;;;;;;3.03;1.48;;;23.80;34.30;;;;;;5029509;28;20203;-41
2021/05/10 08:55:48;;;;;;;1.85;1.20;;;23.80;33.90;;;;;;5013377;28;20226;-41
2021/05/10 08:58:14;;;;;;;2.22;1.30;;;23.80;33.60;;;;;;5023616;28;20198;-47
2021/05/10 09:00:40;;;;;;;1.65;1.55;;;23.80;33.70;;;;;;5022757;28;20237;-46
2021/05/10 09:03:06;;;;;;;2.65;1.42;;;23.80;34.00;;;;;;5034935;28;20197;-44
2021/05/10 09:05:32;;;;;;;3.13;1.30;;;23.80;33.40;;;;;;5031433;28;20618;-50
2021/05/10 09:07:58;;;;;;;2.53;1.65;;;23.80;33.00;;;;;;5032368;28;20206;-43
2021/05/10 09:10:24;;;;;;;1.42;1.30;;;23.80;33.00;;;;;;5031300;28;20206;-50
2021/05/10 09:12:51;;;;;;;2.90;1.30;;;23.80;33.00;;;;;;5032952;28;20218;-50
2021/05/10 09:15:17;;;;;;;2.50;1.45;;;23.80;33.00;;;;;;5032203;28;20222;-46
2021/05/10 09:17:43;;;;;;;1.67;1.08;;;23.80;33.10;;;;;;5032770;28;20727;-45
2021/05/10 09:20:09;;;;;;;2.08;1.35;;;23.80;33.10;;;;;;5032259;28;20207;-45
2021/05/10 09:22:35;;;;;;;1.60;1.48;;;23.80;33.10;;;;;;5027406;28;20678;-51
2021/05/10 09:25:00;;;;;;;1.55;1.45;;;23.80;33.00;;;;;;5032019;28;20230;-43
2021/05/10 09:27:27;;;;;;;1.63;1.50;;;23.80;33.00;;;;;;5032451;28;20203;-42
2021/05/10 09:29:53;;;;;;;2.60;1.33;;;23.80;33.00;;;;;;5032521;28;20241;-40
2021/05/10 09:32:20;;;;;;;1.65;1.27;;;23.80;33.00;;;;;;5032508;28;20558;-43
2021/05/10 09:34:46;;;;;;;1.45;1.30;;;23.80;33.00;;;;;;5031942;28;20254;-47
2021/05/10 09:37:12;;;;;;;1.20;1.10;;;23.80;33.00;;;;;;5032135;28;20268;-42
2021/05/10 09:39:38;;;;;;;1.88;1.48;;;23.80;32.90;;;;;;5032636;28;20199;-49
2021/05/10 09:42:06;;;;;;;1.25;1.10;;;23.80;32.70;;;;;;5032457;28;20204;-42
2021/05/10 09:44:32;;;;;;;2.42;1.40;;;23.80;32.80;;;;;;5032016;28;20249;-53
2021/05/10 09:46:58;;;;;;;1.50;1.40;;;23.80;32.80;;;;;;5032399;28;20658;-45
2021/05/10 09:49:24;;;;;;;1.73;1.38;;;23.80;32.80;;;;;;5032233;28;20253;-41
2021/05/10 09:51:50;;;;;;;1.55;1.45;;;23.80;33.50;;;;;;5032340;28;20556;-51
2021/05/10 09:54:16;;;;;;;1.95;1.30;;;23.80;32.50;;;;;;5031421;28;20209;-47
2021/05/10 09:56:42;;;;;;;2.83;1.50;;;23.80;32.60;;;;;;5012020;28;20213;-49
2021/05/10 09:59:08;;;;;;;1.27;1.10;;;23.80;32.50;;;;;;5017031;28;20202;-40
2021/05/10 10:01:34;;;;;;;3.58;1.30;;;23.80;32.50;;;;;;5031197;28;20198;-46
2021/05/10 10:04:00;;;;;;;1.40;1.30;;;23.80;32.60;;;;;;5031108;28;20631;-48
2021/05/10 10:06:28;;;;;;;1.50;1.27;;;23.70;32.50;;;;;;5032022;28;20248;-40
2021/05/10 10:08:54;;;;;;;1.90;1.15;;;23.80;32.60;;;;;;5027160;28;20282;-45
2021/05/10 10:11:20;;;;;;;1.90;1.20;;;23.70;32.50;;;;;;5031435;28;20210;-46
2021/05/10 10:13:46;;;;;;;1.33;1.20;;;23.80;32.60;;;;;;5031033;28;20198;-46
2021/05/10 10:16:12;;;;;;;2.08;1.17;;;23.70;32.50;;;;;;5031426;28;20589;-44
2021/05/10 10:18:38;;;;;;;1.52;1.38;;;23.70;32.60;;;;;;5025297;28;20203;-40
2021/05/10 10:21:04;;;;;;;1.83;1.40;;;23.70;32.80;;;;;;5029516;28;20213;-47
2021/05/10 10:23:30;;;;;;;1.40;1.30;;;23.80;33.00;;;;;;5030463;28;20226;-47
2021/05/10 10:25:56;;;;;;;2.05;1.50;;;23.90;33.10;;;;;;5030444;28;20218;-44
2021/05/10 10:28:22;;;;;;;1.60;1.50;;;23.80;32.50;;;;;;5030809;28;20204;-48
2021/05/10 10:30:48;;;;;;;1.60;1.30;;;23.90;32.50;;;;;;5030234;28;20278;-46
2021/05/10 10:33:13;;;;;;;1.27;1.17;;;23.90;33.00;;;;;;5030751;28;20214;-42
2021/05/10 10:35:40;;;;;;;2.55;1.25;;;23.90;32.80;;;;;;5030315;28;20225;-44
2021/05/10 10:38:06;;;;;;;1.50;1.40;;;23.90;32.90;;;;;;5026602;28;20202;-40
2021/05/10 10:40:32;;;;;;;2.30;1.50;;;23.90;33.00;;;;;;5030061;28;20233;-43
2021/05/10 10:42:58;;;;;;;3.15;1.50;;;23.90;33.70;;;;;;5030522;28;20206;-42
2021/05/10 10:45:25;;;;;;;9.43;6.32;;;23.90;33.90;;;;;;5030062;28;20307;-43
2021/05/10 10:47:54;;;;;;;38.63;28.23;;;24.00;35.10;;;;;;5031312;28;20221;-45
2021/05/10 10:50:20;;;;;;;70.00;55.17;;;24.00;35.60;;;;;;5027309;28;20771;-46
2021/05/10 10:52:47;;;;;;;89.50;70.97;;;24.00;35.80;;;;;;5022939;28;20276;-42
2021/05/10 10:55:13;;;;;;;63.20;53.92;;;24.10;36.50;;;;;;5023902;28;20335;-47
2021/05/10 10:57:39;;;;;;;64.03;50.58;;;24.10;36.60;;;;;;5029524;28;20323;-47
2021/05/10 11:00:05;;;;;;;71.72;56.92;;;24.10;36.90;;;;;;5029481;28;20206;-41
2021/05/10 11:02:31;;;;;;;59.75;50.28;;;24.10;37.20;;;;;;5029693;28;20321;-43
2021/05/10 11:04:57;;;;;;;60.30;52.65;;;24.20;37.10;;;;;;5030976;28;20573;-45
2021/05/10 11:07:23;;;;;;;66.72;54.10;;;24.20;37.70;;;;;;5030819;28;20235;-43
2021/05/10 11:09:49;;;;;;;71.78;55.33;;;24.20;38.20;;;;;;5013141;28;20227;-46
2021/05/10 11:12:15;;;;;;;65.95;53.05;;;24.20;38.30;;;;;;5011379;28;20209;-40
2021/05/10 11:14:41;;;;;;;57.40;47.28;;;24.20;37.10;;;;;;5010337;28;20277;-46
2021/05/10 11:17:07;;;;;;;52.88;44.78;;;24.20;36.40;;;;;;5008478;28;20616;-43
2021/05/10 11:19:33;;;;;;;45.88;34.38;;;24.10;36.70;;;;;;5010220;28;20222;-42
2021/05/10 11:21:59;;;;;;;44.03;34.55;;;24.10;36.00;;;;;;5005821;28;20223;-44
2021/05/10 11:24:25;;;;;;;39.95;32.80;;;24.10;35.60;;;;;;5008695;28;20590;-42
2021/05/10 11:26:52;;;;;;;52.05;40.70;;;24.00;35.20;;;;;;5011153;28;20261;-44
2021/05/10 11:29:18;;;;;;;40.88;32.38;;;24.00;35.50;;;;;;5010374;28;20199;-41
2021/05/10 11:31:44;;;;;;;42.92;32.22;;;24.10;35.10;;;;;;5010808;28;20226;-42
2021/05/10 11:34:11;;;;;;;44.83;35.47;;;24.00;34.80;;;;;;5009967;28;20227;-43
2021/05/10 11:36:37;;;;;;;44.53;33.95;;;24.00;35.40;;;;;;5010267;28;20195;-47
2021/05/10 11:39:03;;;;;;;44.72;32.42;;;24.00;34.70;;;;;;5008031;28;20242;-41
2021/05/10 11:41:29;;;;;;;44.17;33.63;;;24.00;34.60;;;;;;5007576;28;20203;-48
2021/05/10 11:43:58;;;;;;;41.05;31.88;;;24.00;34.50;;;;;;4990804;28;20243;-44
2021/05/10 11:46:24;;;;;;;42.38;32.33;;;24.00;34.20;;;;;;5003939;28;20606;-45
2021/05/10 11:48:50;;;;;;;41.83;32.58;;;24.00;34.20;;;;;;5013935;28;20202;-47
2021/05/10 11:51:16;;;;;;;42.72;32.97;;;24.00;34.20;;;;;;5014287;28;20257;-50
2021/05/10 11:53:42;;;;;;;41.88;33.17;;;24.00;34.10;;;;;;5012927;28;20231;-46
2021/05/10 11:56:08;;;;;;;40.47;32.30;;;24.00;34.70;;;;;;5013796;28;20657;-49
2021/05/10 11:58:40;;;;;;;40.63;32.15;;;24.00;34.40;;;;;;5014142;28;20214;-44
2021/05/10 12:01:06;;;;;;;45.13;32.83;;;24.00;34.30;;;;;;5008885;28;20230;-45
2021/05/10 12:03:32;;;;;;;45.05;32.58;;;24.00;34.30;;;;;;5013410;28;20265;-52
2021/05/10 12:05:58;;;;;;;43.60;31.65;;;24.00;34.40;;;;;;5014055;28;20575;-47
2021/05/10 12:08:24;;;;;;;39.95;32.03;;;24.00;34.40;;;;;;5014270;28;20238;-43
2021/05/10 12:10:50;;;;;;;43.67;33.25;;;24.00;34.60;;;;;;5013837;28;20203;-45
2021/05/10 12:13:17;;;;;;;41.38;31.27;;;24.00;34.60;;;;;;5013786;28;20246;-41
2021/05/10 12:15:43;;;;;;;44.30;32.25;;;24.00;34.80;;;;;;5012341;28;20206;-49
2021/05/10 12:18:09;;;;;;;45.40;35.83;;;24.00;34.90;;;;;;5013803;28;20219;-48
2021/05/10 12:20:35;;;;;;;44.78;33.10;;;24.10;38.60;;;;;;5011775;28;20611;-49
2021/05/10 12:23:01;;;;;;;43.33;31.27;;;24.10;36.80;;;;;;5012472;28;20226;-41
2021/05/10 12:25:27;;;;;;;45.53;34.03;;;24.10;36.80;;;;;;5012576;28;20588;-41
2021/05/10 12:27:53;;;;;;;41.97;31.55;;;24.10;37.10;;;;;;5012826;28;20230;-45
2021/05/10 12:30:19;;;;;;;44.08;31.77;;;24.10;37.20;;;;;;5012263;28;20225;-46
2021/05/10 12:32:45;;;;;;;44.88;31.52;;;24.10;37.60;;;;;;5013288;28;20195;-46
2021/05/10 12:35:11;;;;;;;43.30;30.95;;;24.10;38.20;;;;;;5012082;28;20281;-48
2021/05/10 12:37:37;;;;;;;43.47;29.05;;;24.10;38.10;;;;;;5010655;28;20778;-43
2021/05/10 12:40:03;;;;;;;42.25;29.70;;;24.10;38.00;;;;;;5008552;28;20199;-46